sensor_id;sensor_type;location;lat;lon;timestamp;pressure;altitude;pressure_sealevel;temperature;humidity
66801;BME280;53703;50.326;19.122;2023-04-21T00:01:44;98858.57;;;19.71;43.27
66801;BME280;53703;50.326;19.122;2023-04-21T00:04:39;98860.45;;;19.64;43.41
66801;BME280;53703;50.326;19.122;2023-04-21T00:07:32;98856.69;;;19.62;43.35
66801;BME280;53703;50.326;19.122;2023-04-21T00:10:26;98856.34;;;19.65;43.37
66801;BME280;53703;50.326;19.122;2023-04-21T00:13:20;98853.90;;;19.65;43.34
66801;BME280;53703;50.326;19.122;2023-04-21T00:16:14;98852.63;;;19.61;43.27
66801;BME280;53703;50.326;19.122;2023-04-21T00:19:07;98850.77;;;19.63;42.86
66801;BME280;53703;50.326;19.122;2023-04-21T00:22:01;98846.59;;;19.60;42.58
66801;BME280;53703;50.326;19.122;2023-04-21T00:24:55;98845.58;;;19.61;42.67
66801;BME280;53703;50.326;19.122;2023-04-21T00:27:49;98847.64;;;19.64;41.98
66801;BME280;53703;50.326;19.122;2023-04-21T00:30:43;98849.27;;;19.60;42.21
66801;BME280;53703;50.326;19.122;2023-04-21T00:33:38;98846.76;;;19.67;41.40
66801;BME280;53703;50.326;19.122;2023-04-21T00:36:32;98850.44;;;19.66;41.53
66801;BME280;53703;50.326;19.122;2023-04-21T00:39:26;98851.64;;;19.59;41.28
66801;BME280;53703;50.326;19.122;2023-04-21T00:42:19;98849.30;;;19.64;41.13
66801;BME280;53703;50.326;19.122;2023-04-21T00:45:13;98850.83;;;19.72;40.95
66801;BME280;53703;50.326;19.122;2023-04-21T00:48:08;98844.85;;;19.61;41.12
66801;BME280;53703;50.326;19.122;2023-04-21T00:51:02;98846.67;;;19.60;41.04
66801;BME280;53703;50.326;19.122;2023-04-21T00:53:57;98847.30;;;19.57;40.95
66801;BME280;53703;50.326;19.122;2023-04-21T00:56:51;98838.36;;;19.57;41.12
66801;BME280;53703;50.326;19.122;2023-04-21T00:59:45;98845.08;;;19.54;41.10
66801;BME280;53703;50.326;19.122;2023-04-21T01:02:40;98842.85;;;19.54;41.05
66801;BME280;53703;50.326;19.122;2023-04-21T01:05:36;98839.98;;;19.56;40.98
66801;BME280;53703;50.326;19.122;2023-04-21T01:08:30;98843.40;;;19.54;40.88
66801;BME280;53703;50.326;19.122;2023-04-21T01:11:24;98844.50;;;19.53;41.17
66801;BME280;53703;50.326;19.122;2023-04-21T01:14:18;98846.50;;;19.54;40.97
66801;BME280;53703;50.326;19.122;2023-04-21T01:17:12;98849.23;;;19.62;40.61
66801;BME280;53703;50.326;19.122;2023-04-21T01:20:09;98850.11;;;19.56;41.02
66801;BME280;53703;50.326;19.122;2023-04-21T01:23:04;98849.66;;;19.57;41.11
66801;BME280;53703;50.326;19.122;2023-04-21T01:25:58;98845.73;;;19.58;40.82
66801;BME280;53703;50.326;19.122;2023-04-21T01:28:54;98846.72;;;19.59;40.89
66801;BME280;53703;50.326;19.122;2023-04-21T01:31:48;98843.22;;;19.56;41.02
66801;BME280;53703;50.326;19.122;2023-04-21T01:34:45;98840.94;;;19.56;41.05
66801;BME280;53703;50.326;19.122;2023-04-21T01:37:39;98846.60;;;19.57;41.00
66801;BME280;53703;50.326;19.122;2023-04-21T01:40:33;98843.24;;;19.57;40.86
66801;BME280;53703;50.326;19.122;2023-04-21T01:43:27;98844.90;;;19.56;40.86
66801;BME280;53703;50.326;19.122;2023-04-21T01:46:22;98851.45;;;19.55;40.72
66801;BME280;53703;50.326;19.122;2023-04-21T01:49:16;98847.48;;;19.55;40.81
66801;BME280;53703;50.326;19.122;2023-04-21T01:52:11;98847.96;;;19.52;40.74
66801;BME280;53703;50.326;19.122;2023-04-21T01:55:05;98845.75;;;19.52;40.88
66801;BME280;53703;50.326;19.122;2023-04-21T01:57:59;98842.35;;;19.56;40.96
66801;BME280;53703;50.326;19.122;2023-04-21T02:00:53;98846.31;;;19.56;40.82
66801;BME280;53703;50.326;19.122;2023-04-21T02:03:47;98848.02;;;19.67;40.39
66801;BME280;53703;50.326;19.122;2023-04-21T02:06:42;98845.75;;;19.61;40.61
66801;BME280;53703;50.326;19.122;2023-04-21T02:09:35;98846.03;;;19.57;40.68
66801;BME280;53703;50.326;19.122;2023-04-21T02:12:29;98839.24;;;19.63;40.44
66801;BME280;53703;50.326;19.122;2023-04-21T02:15:23;98840.38;;;19.65;40.54
66801;BME280;53703;50.326;19.122;2023-04-21T02:18:17;98837.59;;;19.58;40.48
66801;BME280;53703;50.326;19.122;2023-04-21T02:21:11;98837.26;;;19.51;40.61
66801;BME280;53703;50.326;19.122;2023-04-21T02:24:08;98839.34;;;19.58;40.30
66801;BME280;53703;50.326;19.122;2023-04-21T02:27:02;98837.95;;;19.63;40.19
66801;BME280;53703;50.326;19.122;2023-04-21T02:29:56;98837.89;;;19.63;40.12
66801;BME280;53703;50.326;19.122;2023-04-21T02:32:50;98841.06;;;19.67;40.15
66801;BME280;53703;50.326;19.122;2023-04-21T02:35:44;98839.49;;;19.68;40.14
66801;BME280;53703;50.326;19.122;2023-04-21T02:38:38;98843.86;;;19.62;40.10
66801;BME280;53703;50.326;19.122;2023-04-21T02:41:31;98846.62;;;19.71;39.80
66801;BME280;53703;50.326;19.122;2023-04-21T02:44:25;98848.69;;;19.68;40.08
66801;BME280;53703;50.326;19.122;2023-04-21T02:47:19;98848.08;;;19.66;39.72
66801;BME280;53703;50.326;19.122;2023-04-21T02:50:15;98850.39;;;19.51;39.69
66801;BME280;53703;50.326;19.122;2023-04-21T02:53:09;98842.95;;;19.51;39.73
66801;BME280;53703;50.326;19.122;2023-04-21T02:56:02;98841.16;;;19.50;39.82
66801;BME280;53703;50.326;19.122;2023-04-21T02:58:56;98842.90;;;19.55;39.56
66801;BME280;53703;50.326;19.122;2023-04-21T03:01:50;98846.10;;;19.54;39.62
66801;BME280;53703;50.326;19.122;2023-04-21T03:04:44;98844.40;;;19.56;39.38
66801;BME280;53703;50.326;19.122;2023-04-21T03:07:37;98843.20;;;19.49;39.73
66801;BME280;53703;50.326;19.122;2023-04-21T03:10:31;98843.54;;;19.55;39.37
66801;BME280;53703;50.326;19.122;2023-04-21T03:13:26;98839.46;;;19.57;39.29
66801;BME280;53703;50.326;19.122;2023-04-21T03:16:19;98836.48;;;19.55;39.26
66801;BME280;53703;50.326;19.122;2023-04-21T03:19:14;98838.05;;;19.48;39.65
66801;BME280;53703;50.326;19.122;2023-04-21T03:22:09;98841.70;;;19.46;39.43
66801;BME280;53703;50.326;19.122;2023-04-21T03:25:03;98835.55;;;19.52;39.47
66801;BME280;53703;50.326;19.122;2023-04-21T03:27:57;98833.91;;;19.48;39.37
66801;BME280;53703;50.326;19.122;2023-04-21T03:30:50;98837.75;;;19.43;39.37
66801;BME280;53703;50.326;19.122;2023-04-21T03:33:44;98839.14;;;19.54;39.11
66801;BME280;53703;50.326;19.122;2023-04-21T03:36:38;98841.83;;;19.63;39.02
66801;BME280;53703;50.326;19.122;2023-04-21T03:39:31;98845.71;;;19.82;38.54
66801;BME280;53703;50.326;19.122;2023-04-21T03:42:25;98849.25;;;19.69;38.54
66801;BME280;53703;50.326;19.122;2023-04-21T03:45:10;98845.27;;;19.58;38.80
66801;BME280;53703;50.326;19.122;2023-04-21T03:48:05;98846.83;;;19.55;38.90
66801;BME280;53703;50.326;19.122;2023-04-21T03:50:59;98845.29;;;19.53;39.13
66801;BME280;53703;50.326;19.122;2023-04-21T03:53:52;98852.20;;;19.57;38.48
66801;BME280;53703;50.326;19.122;2023-04-21T03:56:46;98859.08;;;19.54;38.91
66801;BME280;53703;50.326;19.122;2023-04-21T03:59:40;98860.77;;;19.61;39.21
66801;BME280;53703;50.326;19.122;2023-04-21T04:02:34;98860.16;;;19.65;38.46
66801;BME280;53703;50.326;19.122;2023-04-21T04:05:28;98859.01;;;19.64;38.43
66801;BME280;53703;50.326;19.122;2023-04-21T04:08:22;98858.65;;;19.62;38.58
66801;BME280;53703;50.326;19.122;2023-04-21T04:11:16;98862.96;;;19.57;38.41
66801;BME280;53703;50.326;19.122;2023-04-21T04:14:10;98868.56;;;19.53;38.55
66801;BME280;53703;50.326;19.122;2023-04-21T04:17:03;98869.06;;;19.49;38.57
66801;BME280;53703;50.326;19.122;2023-04-21T04:20:06;98873.55;;;19.42;38.59
66801;BME280;53703;50.326;19.122;2023-04-21T04:23:00;98874.52;;;19.37;39.05
66801;BME280;53703;50.326;19.122;2023-04-21T04:25:54;98874.20;;;19.36;38.53
66801;BME280;53703;50.326;19.122;2023-04-21T04:28:48;98881.27;;;19.41;39.02
66801;BME280;53703;50.326;19.122;2023-04-21T04:31:42;98877.73;;;19.48;38.81
66801;BME280;53703;50.326;19.122;2023-04-21T04:34:36;98878.42;;;19.47;38.64
66801;BME280;53703;50.326;19.122;2023-04-21T04:37:30;98881.47;;;19.45;38.73
66801;BME280;53703;50.326;19.122;2023-04-21T04:40:26;98882.99;;;19.44;38.74
66801;BME280;53703;50.326;19.122;2023-04-21T04:43:20;98883.20;;;19.43;38.94
66801;BME280;53703;50.326;19.122;2023-04-21T04:46:13;98886.61;;;19.39;39.18
66801;BME280;53703;50.326;19.122;2023-04-21T04:49:08;98886.43;;;19.51;38.68
66801;BME280;53703;50.326;19.122;2023-04-21T04:52:01;98883.62;;;19.43;38.88
66801;BME280;53703;50.326;19.122;2023-04-21T04:54:55;98887.13;;;19.41;39.43
66801;BME280;53703;50.326;19.122;2023-04-21T04:57:49;98886.54;;;19.46;39.49
66801;BME280;53703;50.326;19.122;2023-04-21T05:00:43;98890.56;;;19.48;39.00
66801;BME280;53703;50.326;19.122;2023-04-21T05:03:37;98891.24;;;19.59;38.81
66801;BME280;53703;50.326;19.122;2023-04-21T05:06:30;98889.76;;;19.60;38.98
66801;BME280;53703;50.326;19.122;2023-04-21T05:09:24;98884.34;;;19.58;38.78
66801;BME280;53703;50.326;19.122;2023-04-21T05:12:18;98886.00;;;19.55;39.07
66801;BME280;53703;50.326;19.122;2023-04-21T05:15:12;98888.41;;;19.42;38.93
66801;BME280;53703;50.326;19.122;2023-04-21T05:17:51;98886.55;;;19.34;39.18
66801;BME280;53703;50.326;19.122;2023-04-21T05:20:45;98887.77;;;19.45;38.94
66801;BME280;53703;50.326;19.122;2023-04-21T05:23:39;98888.20;;;19.51;39.36
66801;BME280;53703;50.326;19.122;2023-04-21T05:26:33;98890.02;;;19.46;39.01
66801;BME280;53703;50.326;19.122;2023-04-21T05:29:27;98891.23;;;19.53;39.18
66801;BME280;53703;50.326;19.122;2023-04-21T05:32:20;98890.55;;;19.63;38.97
66801;BME280;53703;50.326;19.122;2023-04-21T05:35:15;98888.25;;;19.33;39.81
66801;BME280;53703;50.326;19.122;2023-04-21T05:38:09;98886.31;;;19.29;39.95
66801;BME280;53703;50.326;19.122;2023-04-21T05:41:03;98889.65;;;19.10;40.82
66801;BME280;53703;50.326;19.122;2023-04-21T05:43:47;98888.65;;;19.13;40.23
66801;BME280;53703;50.326;19.122;2023-04-21T05:46:41;98892.40;;;19.17;40.20
66801;BME280;53703;50.326;19.122;2023-04-21T05:49:35;98895.16;;;19.09;40.92
66801;BME280;53703;50.326;19.122;2023-04-21T05:52:29;98889.96;;;19.18;40.17
66801;BME280;53703;50.326;19.122;2023-04-21T05:55:23;98888.45;;;19.26;40.92
66801;BME280;53703;50.326;19.122;2023-04-21T05:58:16;98885.70;;;19.10;41.22
66801;BME280;53703;50.326;19.122;2023-04-21T06:01:10;98883.28;;;19.05;41.44
66801;BME280;53703;50.326;19.122;2023-04-21T06:04:04;98884.20;;;19.09;41.30
66801;BME280;53703;50.326;19.122;2023-04-21T06:07:02;98880.64;;;19.10;40.56
66801;BME280;53703;50.326;19.122;2023-04-21T06:10:13;98882.30;;;19.33;41.50
66801;BME280;53703;50.326;19.122;2023-04-21T06:13:08;98882.90;;;19.46;41.68
66801;BME280;53703;50.326;19.122;2023-04-21T06:16:02;98881.42;;;19.53;40.81
66801;BME280;53703;50.326;19.122;2023-04-21T06:18:56;98876.48;;;19.45;40.94
66801;BME280;53703;50.326;19.122;2023-04-21T06:21:50;98876.70;;;19.44;40.99
66801;BME280;53703;50.326;19.122;2023-04-21T06:24:44;98875.82;;;19.44;41.19
66801;BME280;53703;50.326;19.122;2023-04-21T06:27:39;98871.89;;;19.42;40.92
66801;BME280;53703;50.326;19.122;2023-04-21T06:30:32;98879.01;;;19.39;40.91
66801;BME280;53703;50.326;19.122;2023-04-21T06:33:27;98870.44;;;19.32;40.99
66801;BME280;53703;50.326;19.122;2023-04-21T06:36:21;98873.52;;;19.38;41.10
66801;BME280;53703;50.326;19.122;2023-04-21T06:39:14;98872.14;;;19.31;39.49
66801;BME280;53703;50.326;19.122;2023-04-21T06:42:08;98874.42;;;19.36;38.88
66801;BME280;53703;50.326;19.122;2023-04-21T06:45:02;98875.02;;;19.65;39.13
66801;BME280;53703;50.326;19.122;2023-04-21T06:47:56;98873.27;;;19.89;40.48
66801;BME280;53703;50.326;19.122;2023-04-21T06:50:50;98868.70;;;19.66;39.68
66801;BME280;53703;50.326;19.122;2023-04-21T06:53:43;98871.11;;;19.11;42.94
66801;BME280;53703;50.326;19.122;2023-04-21T06:56:37;98872.67;;;18.75;47.35
66801;BME280;53703;50.326;19.122;2023-04-21T06:59:33;98867.52;;;18.61;45.36
66801;BME280;53703;50.326;19.122;2023-04-21T07:02:27;98872.82;;;18.51;41.46
66801;BME280;53703;50.326;19.122;2023-04-21T07:05:21;98867.17;;;18.39;40.57
66801;BME280;53703;50.326;19.122;2023-04-21T07:08:16;98866.88;;;18.38;40.49
66801;BME280;53703;50.326;19.122;2023-04-21T07:11:10;98869.09;;;19.07;39.10
66801;BME280;53703;50.326;19.122;2023-04-21T07:14:04;98864.68;;;19.02;39.60
66801;BME280;53703;50.326;19.122;2023-04-21T07:16:58;98861.36;;;19.13;39.48
66801;BME280;53703;50.326;19.122;2023-04-21T07:19:51;98862.17;;;19.67;40.16
66801;BME280;53703;50.326;19.122;2023-04-21T07:22:45;98866.70;;;19.58;40.49
66801;BME280;53703;50.326;19.122;2023-04-21T07:25:39;98867.35;;;19.81;40.70
66801;BME280;53703;50.326;19.122;2023-04-21T07:28:33;98865.14;;;19.56;40.20
66801;BME280;53703;50.326;19.122;2023-04-21T07:31:28;98867.17;;;19.46;40.50
66801;BME280;53703;50.326;19.122;2023-04-21T07:34:21;98865.00;;;19.79;39.98
66801;BME280;53703;50.326;19.122;2023-04-21T07:37:15;98861.50;;;20.00;39.89
66801;BME280;53703;50.326;19.122;2023-04-21T07:40:11;98860.21;;;19.92;39.66
66801;BME280;53703;50.326;19.122;2023-04-21T07:43:05;98858.62;;;19.52;38.27
66801;BME280;53703;50.326;19.122;2023-04-21T07:45:59;98854.81;;;19.73;38.58
66801;BME280;53703;50.326;19.122;2023-04-21T07:48:53;98854.80;;;19.79;38.98
66801;BME280;53703;50.326;19.122;2023-04-21T07:51:47;98854.13;;;19.06;39.31
66801;BME280;53703;50.326;19.122;2023-04-21T07:54:41;98853.44;;;19.69;38.91
66801;BME280;53703;50.326;19.122;2023-04-21T07:57:35;98851.69;;;19.26;38.51
66801;BME280;53703;50.326;19.122;2023-04-21T08:00:31;98850.21;;;19.63;38.17
66801;BME280;53703;50.326;19.122;2023-04-21T08:03:25;98852.30;;;19.55;38.96
66801;BME280;53703;50.326;19.122;2023-04-21T08:06:20;98848.36;;;19.68;39.39
66801;BME280;53703;50.326;19.122;2023-04-21T08:09:14;98848.39;;;19.97;38.61
66801;BME280;53703;50.326;19.122;2023-04-21T08:12:10;98848.27;;;19.80;38.89
66801;BME280;53703;50.326;19.122;2023-04-21T08:15:05;98846.49;;;19.95;39.85
66801;BME280;53703;50.326;19.122;2023-04-21T08:17:59;98845.87;;;19.85;39.75
66801;BME280;53703;50.326;19.122;2023-04-21T08:20:54;98841.27;;;20.02;39.90
66801;BME280;53703;50.326;19.122;2023-04-21T08:23:49;98838.92;;;20.29;40.08
66801;BME280;53703;50.326;19.122;2023-04-21T08:26:44;98839.33;;;20.25;40.21
66801;BME280;53703;50.326;19.122;2023-04-21T08:29:37;98839.75;;;20.27;40.43
66801;BME280;53703;50.326;19.122;2023-04-21T08:32:31;98838.45;;;19.89;40.00
66801;BME280;53703;50.326;19.122;2023-04-21T08:35:25;98839.95;;;19.86;40.11
66801;BME280;53703;50.326;19.122;2023-04-21T08:38:19;98842.74;;;19.74;40.08
66801;BME280;53703;50.326;19.122;2023-04-21T08:41:13;98839.73;;;19.87;39.82
66801;BME280;53703;50.326;19.122;2023-04-21T08:44:07;98834.06;;;20.04;40.05
66801;BME280;53703;50.326;19.122;2023-04-21T08:47:03;98837.54;;;19.85;39.95
66801;BME280;53703;50.326;19.122;2023-04-21T08:49:58;98836.27;;;19.78;39.72
66801;BME280;53703;50.326;19.122;2023-04-21T08:52:52;98837.83;;;19.87;39.48
66801;BME280;53703;50.326;19.122;2023-04-21T08:56:00;98834.72;;;19.96;40.81
66801;BME280;53703;50.326;19.122;2023-04-21T08:59:03;98831.20;;;19.75;40.64
66801;BME280;53703;50.326;19.122;2023-04-21T09:02:11;98826.14;;;19.97;40.36
66801;BME280;53703;50.326;19.122;2023-04-21T09:05:07;98822.55;;;19.90;39.55
66801;BME280;53703;50.326;19.122;2023-04-21T09:08:11;98820.41;;;19.93;39.65
66801;BME280;53703;50.326;19.122;2023-04-21T09:11:06;98825.95;;;19.80;39.48
66801;BME280;53703;50.326;19.122;2023-04-21T09:14:00;98821.48;;;19.68;38.05
66801;BME280;53703;50.326;19.122;2023-04-21T09:17:03;98819.08;;;19.71;39.00
66801;BME280;53703;50.326;19.122;2023-04-21T09:19:57;98820.27;;;19.77;39.16
66801;BME280;53703;50.326;19.122;2023-04-21T09:23:11;98817.62;;;19.72;39.15
66801;BME280;53703;50.326;19.122;2023-04-21T09:26:05;98817.68;;;19.65;37.54
66801;BME280;53703;50.326;19.122;2023-04-21T09:28:59;98814.45;;;19.40;35.80
66801;BME280;53703;50.326;19.122;2023-04-21T09:31:53;98814.43;;;19.58;38.10
66801;BME280;53703;50.326;19.122;2023-04-21T09:34:48;98816.42;;;19.56;38.27
66801;BME280;53703;50.326;19.122;2023-04-21T09:37:44;98818.41;;;19.59;38.18
66801;BME280;53703;50.326;19.122;2023-04-21T09:40:38;98815.77;;;19.62;37.34
66801;BME280;53703;50.326;19.122;2023-04-21T09:43:32;98819.82;;;19.59;37.73
66801;BME280;53703;50.326;19.122;2023-04-21T09:46:26;98811.05;;;19.69;36.17
66801;BME280;53703;50.326;19.122;2023-04-21T09:49:23;98811.57;;;19.52;37.77
66801;BME280;53703;50.326;19.122;2023-04-21T09:52:20;98807.98;;;19.76;35.97
66801;BME280;53703;50.326;19.122;2023-04-21T09:55:15;98802.54;;;19.93;34.59
66801;BME280;53703;50.326;19.122;2023-04-21T09:58:09;98795.92;;;20.25;32.00
66801;BME280;53703;50.326;19.122;2023-04-21T10:01:07;98805.27;;;19.86;37.34
66801;BME280;53703;50.326;19.122;2023-04-21T10:04:02;98807.91;;;19.80;37.64
66801;BME280;53703;50.326;19.122;2023-04-21T10:06:56;98805.20;;;19.82;38.73
66801;BME280;53703;50.326;19.122;2023-04-21T10:09:53;98807.85;;;19.64;37.47
66801;BME280;53703;50.326;19.122;2023-04-21T10:12:47;98792.80;;;19.93;37.79
66801;BME280;53703;50.326;19.122;2023-04-21T10:15:42;98797.14;;;19.66;37.65
66801;BME280;53703;50.326;19.122;2023-04-21T10:18:37;98799.68;;;19.57;36.71
66801;BME280;53703;50.326;19.122;2023-04-21T10:21:55;98787.42;;;19.67;35.54
66801;BME280;53703;50.326;19.122;2023-04-21T10:24:50;98790.36;;;19.64;35.80
66801;BME280;53703;50.326;19.122;2023-04-21T10:27:47;98790.08;;;19.69;34.38
66801;BME280;53703;50.326;19.122;2023-04-21T10:30:41;98787.05;;;19.75;35.66
66801;BME280;53703;50.326;19.122;2023-04-21T10:33:35;98783.63;;;19.80;35.52
66801;BME280;53703;50.326;19.122;2023-04-21T10:37:10;98787.02;;;19.67;35.19
66801;BME280;53703;50.326;19.122;2023-04-21T10:40:34;98789.12;;;19.62;34.92
66801;BME280;53703;50.326;19.122;2023-04-21T10:43:46;98780.79;;;19.80;35.63
66801;BME280;53703;50.326;19.122;2023-04-21T10:46:48;98780.91;;;19.89;35.53
66801;BME280;53703;50.326;19.122;2023-04-21T10:49:43;98779.13;;;19.61;34.82
66801;BME280;53703;50.326;19.122;2023-04-21T10:52:44;98775.66;;;19.65;34.61
66801;BME280;53703;50.326;19.122;2023-04-21T10:55:38;98777.58;;;19.75;34.81
66801;BME280;53703;50.326;19.122;2023-04-21T10:58:34;98771.94;;;19.77;34.35
66801;BME280;53703;50.326;19.122;2023-04-21T11:01:30;98772.50;;;20.08;35.35
66801;BME280;53703;50.326;19.122;2023-04-21T11:04:24;98770.13;;;20.19;36.41
66801;BME280;53703;50.326;19.122;2023-04-21T11:07:21;98763.77;;;20.11;35.89
66801;BME280;53703;50.326;19.122;2023-04-21T11:10:15;98768.32;;;19.99;36.62
66801;BME280;53703;50.326;19.122;2023-04-21T11:13:09;98762.84;;;20.25;36.38
66801;BME280;53703;50.326;19.122;2023-04-21T11:16:06;98764.61;;;20.16;36.64
66801;BME280;53703;50.326;19.122;2023-04-21T11:19:00;98763.13;;;19.96;37.01
66801;BME280;53703;50.326;19.122;2023-04-21T11:21:54;98759.56;;;19.83;36.44
66801;BME280;53703;50.326;19.122;2023-04-21T11:24:50;98761.41;;;20.11;37.76
66801;BME280;53703;50.326;19.122;2023-04-21T11:27:53;98753.35;;;19.91;36.59
66801;BME280;53703;50.326;19.122;2023-04-21T11:30:48;98753.52;;;19.78;34.74
66801;BME280;53703;50.326;19.122;2023-04-21T11:33:42;98750.24;;;19.93;36.33
66801;BME280;53703;50.326;19.122;2023-04-21T11:36:37;98744.52;;;20.03;36.34
66801;BME280;53703;50.326;19.122;2023-04-21T11:39:31;98744.18;;;19.78;35.11
66801;BME280;53703;50.326;19.122;2023-04-21T11:42:22;98735.57;;;20.09;36.35
66801;BME280;53703;50.326;19.122;2023-04-21T11:45:20;98738.48;;;20.02;36.06
66801;BME280;53703;50.326;19.122;2023-04-21T11:48:17;98732.70;;;19.95;35.89
66801;BME280;53703;50.326;19.122;2023-04-21T11:51:16;98741.97;;;20.02;36.69
66801;BME280;53703;50.326;19.122;2023-04-21T11:54:16;98738.58;;;20.55;36.84
66801;BME280;53703;50.326;19.122;2023-04-21T11:57:10;98736.27;;;20.13;35.53
66801;BME280;53703;50.326;19.122;2023-04-21T12:00:07;98736.45;;;20.02;36.18
66801;BME280;53703;50.326;19.122;2023-04-21T12:03:07;98728.91;;;20.09;36.71
66801;BME280;53703;50.326;19.122;2023-04-21T12:06:26;98731.95;;;20.33;37.50
66801;BME280;53703;50.326;19.122;2023-04-21T12:09:21;98727.48;;;20.23;37.09
66801;BME280;53703;50.326;19.122;2023-04-21T12:12:15;98731.43;;;20.19;37.17
66801;BME280;53703;50.326;19.122;2023-04-21T12:15:12;98726.67;;;20.42;36.58
66801;BME280;53703;50.326;19.122;2023-04-21T12:18:14;98723.95;;;20.04;35.64
66801;BME280;53703;50.326;19.122;2023-04-21T12:21:17;98724.96;;;19.82;34.82
66801;BME280;53703;50.326;19.122;2023-04-21T12:24:11;98725.06;;;19.83;34.91
66801;BME280;53703;50.326;19.122;2023-04-21T12:27:07;98715.15;;;19.99;35.44
66801;BME280;53703;50.326;19.122;2023-04-21T12:30:01;98704.95;;;20.28;35.78
66801;BME280;53703;50.326;19.122;2023-04-21T12:32:55;98696.69;;;19.91;35.68
66801;BME280;53703;50.326;19.122;2023-04-21T12:35:49;98690.63;;;20.37;36.26
66801;BME280;53703;50.326;19.122;2023-04-21T12:38:43;98693.41;;;19.93;35.84
66801;BME280;53703;50.326;19.122;2023-04-21T12:41:37;98701.06;;;19.68;36.15
66801;BME280;53703;50.326;19.122;2023-04-21T12:44:31;98698.55;;;19.85;36.29
66801;BME280;53703;50.326;19.122;2023-04-21T12:47:25;98697.12;;;19.93;36.05
66801;BME280;53703;50.326;19.122;2023-04-21T12:50:19;98693.30;;;19.85;36.17
66801;BME280;53703;50.326;19.122;2023-04-21T12:53:13;98697.98;;;19.89;36.17
66801;BME280;53703;50.326;19.122;2023-04-21T12:56:08;98695.84;;;19.89;35.06
66801;BME280;53703;50.326;19.122;2023-04-21T12:59:02;98691.48;;;19.74;36.02
66801;BME280;53703;50.326;19.122;2023-04-21T13:01:57;98690.20;;;19.73;35.52
66801;BME280;53703;50.326;19.122;2023-04-21T13:04:50;98687.79;;;19.78;35.12
66801;BME280;53703;50.326;19.122;2023-04-21T13:07:44;98684.73;;;20.12;36.19
66801;BME280;53703;50.326;19.122;2023-04-21T13:10:38;98685.16;;;19.68;35.47
66801;BME280;53703;50.326;19.122;2023-04-21T13:13:32;98682.93;;;19.53;35.35
66801;BME280;53703;50.326;19.122;2023-04-21T13:16:26;98678.11;;;19.50;35.09
66801;BME280;53703;50.326;19.122;2023-04-21T13:19:22;98675.88;;;19.73;35.70
66801;BME280;53703;50.326;19.122;2023-04-21T13:22:16;98672.65;;;20.22;35.79
66801;BME280;53703;50.326;19.122;2023-04-21T13:25:11;98673.85;;;20.37;35.59
66801;BME280;53703;50.326;19.122;2023-04-21T13:28:05;98667.38;;;19.82;35.29
66801;BME280;53703;50.326;19.122;2023-04-21T13:30:59;98665.75;;;19.87;34.73
66801;BME280;53703;50.326;19.122;2023-04-21T13:33:53;98664.42;;;19.99;35.43
66801;BME280;53703;50.326;19.122;2023-04-21T13:36:47;98660.41;;;19.79;35.94
66801;BME280;53703;50.326;19.122;2023-04-21T13:39:42;98659.45;;;19.78;35.44
66801;BME280;53703;50.326;19.122;2023-04-21T13:42:39;98656.56;;;20.08;36.02
66801;BME280;53703;50.326;19.122;2023-04-21T13:45:33;98654.64;;;19.89;35.12
66801;BME280;53703;50.326;19.122;2023-04-21T13:48:26;98651.47;;;19.75;34.09
66801;BME280;53703;50.326;19.122;2023-04-21T13:51:22;98643.00;;;20.23;34.72
66801;BME280;53703;50.326;19.122;2023-04-21T13:54:15;98638.39;;;19.99;35.32
66801;BME280;53703;50.326;19.122;2023-04-21T13:57:09;98640.96;;;19.65;34.52
66801;BME280;53703;50.326;19.122;2023-04-21T14:00:03;98636.05;;;19.60;34.81
66801;BME280;53703;50.326;19.122;2023-04-21T14:02:58;98637.39;;;19.57;34.16
66801;BME280;53703;50.326;19.122;2023-04-21T14:05:52;98634.90;;;19.52;34.04
66801;BME280;53703;50.326;19.122;2023-04-21T14:08:46;98636.26;;;19.64;34.84
66801;BME280;53703;50.326;19.122;2023-04-21T14:11:40;98635.17;;;19.97;35.52
66801;BME280;53703;50.326;19.122;2023-04-21T14:14:34;98633.64;;;19.59;34.49
66801;BME280;53703;50.326;19.122;2023-04-21T14:17:30;98628.11;;;19.52;34.73
66801;BME280;53703;50.326;19.122;2023-04-21T14:20:25;98626.38;;;19.63;35.20
66801;BME280;53703;50.326;19.122;2023-04-21T14:23:20;98622.48;;;19.59;35.19
66801;BME280;53703;50.326;19.122;2023-04-21T14:26:13;98620.11;;;19.51;34.52
66801;BME280;53703;50.326;19.122;2023-04-21T14:29:07;98622.02;;;19.49;34.32
66801;BME280;53703;50.326;19.122;2023-04-21T14:32:01;98618.40;;;19.50;35.08
66801;BME280;53703;50.326;19.122;2023-04-21T14:34:55;98615.41;;;19.61;34.87
66801;BME280;53703;50.326;19.122;2023-04-21T14:37:50;98614.29;;;19.60;35.32
66801;BME280;53703;50.326;19.122;2023-04-21T14:40:46;98603.43;;;19.89;36.13
66801;BME280;53703;50.326;19.122;2023-04-21T14:43:41;98607.79;;;19.60;35.25
66801;BME280;53703;50.326;19.122;2023-04-21T14:46:35;98606.98;;;19.45;34.89
66801;BME280;53703;50.326;19.122;2023-04-21T14:49:30;98607.21;;;19.37;34.20
66801;BME280;53703;50.326;19.122;2023-04-21T14:52:25;98604.16;;;19.42;34.27
66801;BME280;53703;50.326;19.122;2023-04-21T14:55:19;98600.78;;;19.43;34.58
66801;BME280;53703;50.326;19.122;2023-04-21T14:58:13;98600.57;;;19.48;34.32
66801;BME280;53703;50.326;19.122;2023-04-21T15:01:07;98595.94;;;19.46;34.41
66801;BME280;53703;50.326;19.122;2023-04-21T15:04:02;98590.12;;;19.59;34.89
66801;BME280;53703;50.326;19.122;2023-04-21T15:06:56;98591.55;;;19.48;34.59
66801;BME280;53703;50.326;19.122;2023-04-21T15:09:50;98590.43;;;19.58;35.02
66801;BME280;53703;50.326;19.122;2023-04-21T15:12:45;98587.90;;;19.44;34.87
66801;BME280;53703;50.326;19.122;2023-04-21T15:15:38;98585.85;;;19.51;34.67